sensor_id;sensor_type;location;lat;lon;timestamp;P1;durP1;ratioP1;P2;durP2;ratioP2
31347;SDS011;21711;49.708;18.568;2024-02-15T00:00:07;12.68;;;4.55;;
31347;SDS011;21711;49.708;18.568;2024-02-15T00:02:35;10.15;;;4.30;;
31347;SDS011;21711;49.708;18.568;2024-02-15T00:05:02;13.98;;;5.05;;
31347;SDS011;21711;49.708;18.568;2024-02-15T00:07:30;14.98;;;5.15;;
31347;SDS011;21711;49.708;18.568;2024-02-15T00:09:58;9.27;;;4.40;;
31347;SDS011;21711;49.708;18.568;2024-02-15T00:12:25;11.73;;;5.32;;
31347;SDS011;21711;49.708;18.568;2024-02-15T00:14:53;11.93;;;4.50;;
31347;SDS011;21711;49.708;18.568;2024-02-15T00:17:23;10.82;;;5.00;;
31347;SDS011;21711;49.708;18.568;2024-02-15T00:19:51;11.13;;;4.82;;
31347;SDS011;21711;49.708;18.568;2024-02-15T00:22:18;9.70;;;4.80;;
31347;SDS011;21711;49.708;18.568;2024-02-15T00:24:47;9.35;;;4.55;;
31347;SDS011;21711;49.708;18.568;2024-02-15T00:27:17;9.65;;;4.50;;
31347;SDS011;21711;49.708;18.568;2024-02-15T00:29:45;9.93;;;4.93;;
31347;SDS011;21711;49.708;18.568;2024-02-15T00:32:13;11.98;;;5.05;;
31347;SDS011;21711;49.708;18.568;2024-02-15T00:34:40;10.57;;;4.45;;
31347;SDS011;21711;49.708;18.568;2024-02-15T00:37:08;10.98;;;4.93;;
31347;SDS011;21711;49.708;18.568;2024-02-15T00:39:35;9.57;;;5.07;;
31347;SDS011;21711;49.708;18.568;2024-02-15T00:42:03;11.35;;;4.93;;
31347;SDS011;21711;49.708;18.568;2024-02-15T00:44:32;10.20;;;4.53;;
31347;SDS011;21711;49.708;18.568;2024-02-15T00:47:00;13.38;;;5.45;;
31347;SDS011;21711;49.708;18.568;2024-02-15T00:49:27;13.02;;;4.82;;
31347;SDS011;21711;49.708;18.568;2024-02-15T00:51:55;12.20;;;4.90;;
31347;SDS011;21711;49.708;18.568;2024-02-15T00:54:22;13.35;;;5.43;;
31347;SDS011;21711;49.708;18.568;2024-02-15T00:56:50;9.73;;;4.35;;
31347;SDS011;21711;49.708;18.568;2024-02-15T00:59:18;11.30;;;5.93;;
31347;SDS011;21711;49.708;18.568;2024-02-15T01:01:45;11.07;;;4.80;;
31347;SDS011;21711;49.708;18.568;2024-02-15T01:04:14;8.30;;;4.90;;
31347;SDS011;21711;49.708;18.568;2024-02-15T01:06:42;9.02;;;4.53;;
31347;SDS011;21711;49.708;18.568;2024-02-15T01:09:10;10.20;;;4.18;;
31347;SDS011;21711;49.708;18.568;2024-02-15T01:11:37;7.60;;;3.30;;
31347;SDS011;21711;49.708;18.568;2024-02-15T01:14:04;7.30;;;3.38;;
31347;SDS011;21711;49.708;18.568;2024-02-15T01:16:33;8.20;;;3.30;;
31347;SDS011;21711;49.708;18.568;2024-02-15T01:19:02;8.95;;;3.88;;
31347;SDS011;21711;49.708;18.568;2024-02-15T01:21:30;15.20;;;4.95;;
31347;SDS011;21711;49.708;18.568;2024-02-15T01:23:59;9.48;;;4.22;;
31347;SDS011;21711;49.708;18.568;2024-02-15T01:26:27;9.02;;;4.30;;
31347;SDS011;21711;49.708;18.568;2024-02-15T01:28:55;8.98;;;4.20;;
31347;SDS011;21711;49.708;18.568;2024-02-15T01:31:22;7.50;;;4.18;;
31347;SDS011;21711;49.708;18.568;2024-02-15T01:33:49;11.15;;;3.58;;
31347;SDS011;21711;49.708;18.568;2024-02-15T01:36:17;9.50;;;4.60;;
31347;SDS011;21711;49.708;18.568;2024-02-15T01:38:45;12.20;;;5.28;;
31347;SDS011;21711;49.708;18.568;2024-02-15T01:41:13;13.75;;;5.25;;
31347;SDS011;21711;49.708;18.568;2024-02-15T01:43:43;8.55;;;4.78;;
31347;SDS011;21711;49.708;18.568;2024-02-15T01:46:14;13.52;;;5.03;;
31347;SDS011;21711;49.708;18.568;2024-02-15T01:48:42;9.55;;;4.75;;
31347;SDS011;21711;49.708;18.568;2024-02-15T01:51:12;8.73;;;4.63;;
31347;SDS011;21711;49.708;18.568;2024-02-15T01:53:42;13.80;;;5.68;;
31347;SDS011;21711;49.708;18.568;2024-02-15T01:56:12;17.55;;;5.78;;
31347;SDS011;21711;49.708;18.568;2024-02-15T01:58:42;11.52;;;5.18;;
31347;SDS011;21711;49.708;18.568;2024-02-15T02:01:12;10.23;;;4.97;;
31347;SDS011;21711;49.708;18.568;2024-02-15T02:03:41;15.73;;;5.22;;
31347;SDS011;21711;49.708;18.568;2024-02-15T02:06:09;13.82;;;5.82;;
31347;SDS011;21711;49.708;18.568;2024-02-15T02:08:37;13.73;;;5.10;;
31347;SDS011;21711;49.708;18.568;2024-02-15T02:11:04;15.48;;;5.43;;
31347;SDS011;21711;49.708;18.568;2024-02-15T02:13:33;13.32;;;5.65;;
31347;SDS011;21711;49.708;18.568;2024-02-15T02:16:01;13.82;;;5.80;;
31347;SDS011;21711;49.708;18.568;2024-02-15T02:18:29;15.32;;;5.72;;
31347;SDS011;21711;49.708;18.568;2024-02-15T02:20:57;12.68;;;5.63;;
31347;SDS011;21711;49.708;18.568;2024-02-15T02:23:25;10.98;;;5.13;;
31347;SDS011;21711;49.708;18.568;2024-02-15T02:25:55;15.63;;;5.70;;
31347;SDS011;21711;49.708;18.568;2024-02-15T02:28:23;12.98;;;5.70;;
31347;SDS011;21711;49.708;18.568;2024-02-15T02:30:51;10.48;;;5.38;;
31347;SDS011;21711;49.708;18.568;2024-02-15T02:33:18;11.85;;;5.60;;
31347;SDS011;21711;49.708;18.568;2024-02-15T02:35:49;13.50;;;6.07;;
31347;SDS011;21711;49.708;18.568;2024-02-15T02:38:17;10.75;;;5.63;;
31347;SDS011;21711;49.708;18.568;2024-02-15T02:40:45;12.30;;;5.57;;
31347;SDS011;21711;49.708;18.568;2024-02-15T02:43:12;10.98;;;6.22;;
31347;SDS011;21711;49.708;18.568;2024-02-15T02:45:40;13.63;;;5.93;;
31347;SDS011;21711;49.708;18.568;2024-02-15T02:48:08;11.55;;;5.72;;
31347;SDS011;21711;49.708;18.568;2024-02-15T02:50:36;15.50;;;6.05;;
31347;SDS011;21711;49.708;18.568;2024-02-15T02:53:03;9.50;;;4.97;;
31347;SDS011;21711;49.708;18.568;2024-02-15T02:55:31;15.25;;;6.22;;
31347;SDS011;21711;49.708;18.568;2024-02-15T02:57:59;13.85;;;5.93;;
31347;SDS011;21711;49.708;18.568;2024-02-15T03:03:15;14.15;;;5.60;;
31347;SDS011;21711;49.708;18.568;2024-02-15T03:05:43;15.13;;;6.35;;
31347;SDS011;21711;49.708;18.568;2024-02-15T03:08:11;13.50;;;5.85;;
31347;SDS011;21711;49.708;18.568;2024-02-15T03:10:44;12.25;;;5.70;;
31347;SDS011;21711;49.708;18.568;2024-02-15T03:13:11;12.85;;;6.10;;
31347;SDS011;21711;49.708;18.568;2024-02-15T03:15:38;13.93;;;5.72;;
31347;SDS011;21711;49.708;18.568;2024-02-15T03:18:08;15.65;;;6.68;;
31347;SDS011;21711;49.708;18.568;2024-02-15T03:20:38;14.52;;;6.60;;
31347;SDS011;21711;49.708;18.568;2024-02-15T03:23:06;12.60;;;5.82;;
31347;SDS011;21711;49.708;18.568;2024-02-15T03:25:33;16.08;;;6.53;;
31347;SDS011;21711;49.708;18.568;2024-02-15T03:28:01;12.13;;;5.82;;
31347;SDS011;21711;49.708;18.568;2024-02-15T03:30:30;15.13;;;6.38;;
31347;SDS011;21711;49.708;18.568;2024-02-15T03:33:00;13.45;;;6.22;;
31347;SDS011;21711;49.708;18.568;2024-02-15T03:35:33;13.90;;;5.82;;
31347;SDS011;21711;49.708;18.568;2024-02-15T03:38:04;14.95;;;6.47;;
31347;SDS011;21711;49.708;18.568;2024-02-15T03:40:40;10.95;;;5.80;;
31347;SDS011;21711;49.708;18.568;2024-02-15T03:43:08;13.13;;;7.15;;
31347;SDS011;21711;49.708;18.568;2024-02-15T03:45:35;13.10;;;6.57;;
31347;SDS011;21711;49.708;18.568;2024-02-15T03:48:03;12.18;;;6.53;;
31347;SDS011;21711;49.708;18.568;2024-02-15T03:50:32;13.70;;;5.90;;
31347;SDS011;21711;49.708;18.568;2024-02-15T03:52:59;12.88;;;6.28;;
31347;SDS011;21711;49.708;18.568;2024-02-15T03:55:27;16.45;;;6.82;;
31347;SDS011;21711;49.708;18.568;2024-02-15T03:57:54;14.25;;;6.35;;
31347;SDS011;21711;49.708;18.568;2024-02-15T04:00:22;15.48;;;6.57;;
31347;SDS011;21711;49.708;18.568;2024-02-15T04:02:52;11.38;;;6.25;;
31347;SDS011;21711;49.708;18.568;2024-02-15T04:05:20;14.43;;;5.60;;
31347;SDS011;21711;49.708;18.568;2024-02-15T04:07:49;14.25;;;6.07;;
31347;SDS011;21711;49.708;18.568;2024-02-15T04:10:17;14.25;;;5.78;;
31347;SDS011;21711;49.708;18.568;2024-02-15T04:12:45;13.82;;;5.97;;
31347;SDS011;21711;49.708;18.568;2024-02-15T04:15:12;15.60;;;5.82;;
31347;SDS011;21711;49.708;18.568;2024-02-15T04:17:44;11.98;;;5.38;;
31347;SDS011;21711;49.708;18.568;2024-02-15T04:20:12;16.00;;;6.25;;
31347;SDS011;21711;49.708;18.568;2024-02-15T04:22:42;14.30;;;6.28;;
31347;SDS011;21711;49.708;18.568;2024-02-15T04:25:11;14.55;;;5.70;;
31347;SDS011;21711;49.708;18.568;2024-02-15T04:27:47;14.73;;;6.47;;
31347;SDS011;21711;49.708;18.568;2024-02-15T04:30:16;11.45;;;5.90;;
31347;SDS011;21711;49.708;18.568;2024-02-15T04:32:44;12.27;;;6.10;;
31347;SDS011;21711;49.708;18.568;2024-02-15T04:35:13;10.45;;;5.95;;
31347;SDS011;21711;49.708;18.568;2024-02-15T04:37:41;12.60;;;5.97;;
31347;SDS011;21711;49.708;18.568;2024-02-15T04:40:09;14.30;;;5.80;;
31347;SDS011;21711;49.708;18.568;2024-02-15T04:42:37;13.52;;;5.75;;
31347;SDS011;21711;49.708;18.568;2024-02-15T04:45:11;12.77;;;5.80;;
31347;SDS011;21711;49.708;18.568;2024-02-15T04:47:42;11.23;;;5.53;;
31347;SDS011;21711;49.708;18.568;2024-02-15T04:52:41;11.95;;;5.07;;
31347;SDS011;21711;49.708;18.568;2024-02-15T04:55:12;15.68;;;6.75;;
31347;SDS011;21711;49.708;18.568;2024-02-15T04:57:39;12.13;;;5.57;;
31347;SDS011;21711;49.708;18.568;2024-02-15T05:00:07;14.15;;;5.68;;
31347;SDS011;21711;49.708;18.568;2024-02-15T05:02:37;16.58;;;6.32;;
31347;SDS011;21711;49.708;18.568;2024-02-15T05:05:08;12.80;;;5.60;;
31347;SDS011;21711;49.708;18.568;2024-02-15T05:07:37;13.10;;;5.80;;
31347;SDS011;21711;49.708;18.568;2024-02-15T05:10:07;14.52;;;6.43;;
31347;SDS011;21711;49.708;18.568;2024-02-15T05:12:37;10.43;;;6.03;;
31347;SDS011;21711;49.708;18.568;2024-02-15T05:15:09;18.23;;;7.10;;
31347;SDS011;21711;49.708;18.568;2024-02-15T05:17:39;11.77;;;5.03;;
31347;SDS011;21711;49.708;18.568;2024-02-15T05:20:08;18.48;;;6.22;;
31347;SDS011;21711;49.708;18.568;2024-02-15T05:22:39;13.52;;;5.85;;
31347;SDS011;21711;49.708;18.568;2024-02-15T05:25:15;15.50;;;6.18;;
31347;SDS011;21711;49.708;18.568;2024-02-15T05:27:49;12.93;;;5.10;;
31347;SDS011;21711;49.708;18.568;2024-02-15T05:30:16;10.75;;;6.03;;
31347;SDS011;21711;49.708;18.568;2024-02-15T05:32:45;20.75;;;6.28;;
31347;SDS011;21711;49.708;18.568;2024-02-15T05:35:12;14.02;;;5.82;;
31347;SDS011;21711;49.708;18.568;2024-02-15T05:37:40;12.15;;;6.03;;
31347;SDS011;21711;49.708;18.568;2024-02-15T05:40:07;13.20;;;5.85;;
31347;SDS011;21711;49.708;18.568;2024-02-15T05:42:42;13.43;;;6.28;;
31347;SDS011;21711;49.708;18.568;2024-02-15T05:47:52;10.05;;;5.60;;
31347;SDS011;21711;49.708;18.568;2024-02-15T05:50:21;13.27;;;5.43;;
31347;SDS011;21711;49.708;18.568;2024-02-15T05:52:51;13.00;;;5.40;;
31347;SDS011;21711;49.708;18.568;2024-02-15T05:55:19;13.18;;;5.70;;
31347;SDS011;21711;49.708;18.568;2024-02-15T05:57:47;11.43;;;5.53;;
31347;SDS011;21711;49.708;18.568;2024-02-15T06:00:14;14.07;;;5.57;;
31347;SDS011;21711;49.708;18.568;2024-02-15T06:02:48;13.38;;;5.85;;
31347;SDS011;21711;49.708;18.568;2024-02-15T06:05:17;12.80;;;5.65;;
31347;SDS011;21711;49.708;18.568;2024-02-15T06:07:47;16.33;;;6.25;;
31347;SDS011;21711;49.708;18.568;2024-02-15T06:10:15;16.17;;;6.10;;
31347;SDS011;21711;49.708;18.568;2024-02-15T06:12:42;14.05;;;6.28;;
31347;SDS011;21711;49.708;18.568;2024-02-15T06:15:10;9.25;;;5.75;;
31347;SDS011;21711;49.708;18.568;2024-02-15T06:17:43;10.90;;;4.95;;
31347;SDS011;21711;49.708;18.568;2024-02-15T06:20:15;12.18;;;5.53;;
31347;SDS011;21711;49.708;18.568;2024-02-15T06:22:48;12.52;;;5.93;;
31347;SDS011;21711;49.708;18.568;2024-02-15T06:25:16;14.38;;;6.78;;
31347;SDS011;21711;49.708;18.568;2024-02-15T06:27:48;14.50;;;5.60;;
31347;SDS011;21711;49.708;18.568;2024-02-15T06:30:20;12.25;;;4.93;;
31347;SDS011;21711;49.708;18.568;2024-02-15T06:33:06;12.93;;;5.60;;
31347;SDS011;21711;49.708;18.568;2024-02-15T06:35:52;11.75;;;5.65;;
31347;SDS011;21711;49.708;18.568;2024-02-15T06:38:38;14.25;;;5.40;;
31347;SDS011;21711;49.708;18.568;2024-02-15T06:41:24;12.70;;;5.95;;
31347;SDS011;21711;49.708;18.568;2024-02-15T06:43:52;10.38;;;5.20;;
31347;SDS011;21711;49.708;18.568;2024-02-15T06:46:20;12.68;;;5.38;;
31347;SDS011;21711;49.708;18.568;2024-02-15T06:48:47;14.70;;;5.50;;
31347;SDS011;21711;49.708;18.568;2024-02-15T06:51:15;11.50;;;5.22;;
31347;SDS011;21711;49.708;18.568;2024-02-15T06:53:43;13.23;;;5.28;;
31347;SDS011;21711;49.708;18.568;2024-02-15T06:56:10;12.13;;;5.05;;
31347;SDS011;21711;49.708;18.568;2024-02-15T06:58:38;10.38;;;4.97;;
31347;SDS011;21711;49.708;18.568;2024-02-15T07:01:09;15.02;;;6.72;;
31347;SDS011;21711;49.708;18.568;2024-02-15T07:03:40;10.35;;;4.65;;
31347;SDS011;21711;49.708;18.568;2024-02-15T07:06:07;12.05;;;5.07;;
31347;SDS011;21711;49.708;18.568;2024-02-15T07:08:35;13.45;;;4.63;;
31347;SDS011;21711;49.708;18.568;2024-02-15T07:11:02;11.77;;;5.30;;
31347;SDS011;21711;49.708;18.568;2024-02-15T07:13:30;11.13;;;4.55;;
31347;SDS011;21711;49.708;18.568;2024-02-15T07:15:58;10.75;;;5.03;;
31347;SDS011;21711;49.708;18.568;2024-02-15T07:18:25;16.85;;;7.03;;
31347;SDS011;21711;49.708;18.568;2024-02-15T07:20:55;12.07;;;4.85;;
31347;SDS011;21711;49.708;18.568;2024-02-15T07:23:26;17.30;;;5.57;;
31347;SDS011;21711;49.708;18.568;2024-02-15T07:25:54;10.35;;;4.55;;
31347;SDS011;21711;49.708;18.568;2024-02-15T07:28:21;11.52;;;4.47;;
31347;SDS011;21711;49.708;18.568;2024-02-15T07:30:51;11.80;;;4.75;;
31347;SDS011;21711;49.708;18.568;2024-02-15T07:33:22;9.35;;;4.60;;
31347;SDS011;21711;49.708;18.568;2024-02-15T07:35:50;15.40;;;4.70;;
31347;SDS011;21711;49.708;18.568;2024-02-15T07:38:18;11.00;;;4.78;;
31347;SDS011;21711;49.708;18.568;2024-02-15T07:40:49;10.55;;;4.32;;
31347;SDS011;21711;49.708;18.568;2024-02-15T07:43:17;14.52;;;4.18;;
31347;SDS011;21711;49.708;18.568;2024-02-15T07:45:44;8.35;;;4.68;;
31347;SDS011;21711;49.708;18.568;2024-02-15T07:48:14;9.38;;;4.10;;
31347;SDS011;21711;49.708;18.568;2024-02-15T07:50:42;12.77;;;4.20;;
31347;SDS011;21711;49.708;18.568;2024-02-15T07:53:11;12.18;;;5.03;;
31347;SDS011;21711;49.708;18.568;2024-02-15T07:55:40;9.65;;;4.57;;
31347;SDS011;21711;49.708;18.568;2024-02-15T07:58:08;6.72;;;3.53;;
31347;SDS011;21711;49.708;18.568;2024-02-15T08:00:35;8.43;;;4.18;;
31347;SDS011;21711;49.708;18.568;2024-02-15T08:03:05;11.32;;;5.32;;
31347;SDS011;21711;49.708;18.568;2024-02-15T08:05:32;18.08;;;4.88;;
31347;SDS011;21711;49.708;18.568;2024-02-15T08:08:00;11.70;;;4.20;;
31347;SDS011;21711;49.708;18.568;2024-02-15T08:10:27;9.05;;;4.10;;
31347;SDS011;21711;49.708;18.568;2024-02-15T08:12:55;7.07;;;3.88;;
31347;SDS011;21711;49.708;18.568;2024-02-15T08:15:24;7.05;;;4.13;;
31347;SDS011;21711;49.708;18.568;2024-02-15T08:17:55;9.32;;;4.18;;
31347;SDS011;21711;49.708;18.568;2024-02-15T08:20:22;13.73;;;4.05;;
31347;SDS011;21711;49.708;18.568;2024-02-15T08:22:50;9.27;;;4.32;;
31347;SDS011;21711;49.708;18.568;2024-02-15T08:25:17;8.43;;;4.43;;
31347;SDS011;21711;49.708;18.568;2024-02-15T08:27:46;8.60;;;4.30;;
31347;SDS011;21711;49.708;18.568;2024-02-15T08:30:17;9.45;;;4.75;;
31347;SDS011;21711;49.708;18.568;2024-02-15T08:32:50;10.52;;;4.88;;
31347;SDS011;21711;49.708;18.568;2024-02-15T08:35:20;13.13;;;6.15;;
31347;SDS011;21711;49.708;18.568;2024-02-15T08:37:48;12.05;;;6.35;;
31347;SDS011;21711;49.708;18.568;2024-02-15T08:40:18;12.73;;;6.18;;
31347;SDS011;21711;49.708;18.568;2024-02-15T08:42:51;10.52;;;5.47;;
31347;SDS011;21711;49.708;18.568;2024-02-15T08:45:18;9.85;;;5.28;;
31347;SDS011;21711;49.708;18.568;2024-02-15T08:47:47;11.45;;;5.20;;
31347;SDS011;21711;49.708;18.568;2024-02-15T08:50:16;10.00;;;5.30;;
31347;SDS011;21711;49.708;18.568;2024-02-15T08:52:44;10.25;;;5.40;;
31347;SDS011;21711;49.708;18.568;2024-02-15T08:55:13;10.00;;;6.15;;
31347;SDS011;21711;49.708;18.568;2024-02-15T08:57:41;12.20;;;6.50;;
31347;SDS011;21711;49.708;18.568;2024-02-15T09:00:11;11.33;;;6.60;;
31347;SDS011;21711;49.708;18.568;2024-02-15T09:02:43;12.82;;;7.63;;
31347;SDS011;21711;49.708;18.568;2024-02-15T09:05:12;12.60;;;6.32;;
31347;SDS011;21711;49.708;18.568;2024-02-15T09:07:41;12.40;;;6.43;;
31347;SDS011;21711;49.708;18.568;2024-02-15T09:10:10;9.55;;;5.95;;
31347;SDS011;21711;49.708;18.568;2024-02-15T09:12:41;10.05;;;5.72;;
31347;SDS011;21711;49.708;18.568;2024-02-15T09:15:11;11.07;;;5.78;;
31347;SDS011;21711;49.708;18.568;2024-02-15T09:17:39;9.93;;;5.78;;
31347;SDS011;21711;49.708;18.568;2024-02-15T09:20:07;6.60;;;4.43;;
31347;SDS011;21711;49.708;18.568;2024-02-15T09:22:41;7.90;;;5.22;;
31347;SDS011;21711;49.708;18.568;2024-02-15T09:25:18;9.52;;;4.30;;
31347;SDS011;21711;49.708;18.568;2024-02-15T09:27:47;7.68;;;4.65;;
31347;SDS011;21711;49.708;18.568;2024-02-15T09:30:14;7.18;;;4.60;;
31347;SDS011;21711;49.708;18.568;2024-02-15T09:32:43;7.10;;;3.77;;
31347;SDS011;21711;49.708;18.568;2024-02-15T09:35:12;5.90;;;4.10;;
31347;SDS011;21711;49.708;18.568;2024-02-15T09:37:47;4.53;;;3.25;;
31347;SDS011;21711;49.708;18.568;2024-02-15T09:40:16;5.47;;;2.70;;
31347;SDS011;21711;49.708;18.568;2024-02-15T09:42:46;4.90;;;3.08;;
31347;SDS011;21711;49.708;18.568;2024-02-15T09:45:14;5.88;;;2.70;;
31347;SDS011;21711;49.708;18.568;2024-02-15T09:47:44;4.88;;;2.30;;
31347;SDS011;21711;49.708;18.568;2024-02-15T09:50:13;5.38;;;2.10;;
31347;SDS011;21711;49.708;18.568;2024-02-15T09:52:47;3.90;;;1.75;;
31347;SDS011;21711;49.708;18.568;2024-02-15T09:55:20;2.70;;;1.63;;
31347;SDS011;21711;49.708;18.568;2024-02-15T09:57:50;2.80;;;1.58;;
31347;SDS011;21711;49.708;18.568;2024-02-15T10:00:18;2.33;;;1.35;;
31347;SDS011;21711;49.708;18.568;2024-02-15T10:02:52;2.78;;;1.88;;
31347;SDS011;21711;49.708;18.568;2024-02-15T10:05:21;12.27;;;2.22;;
31347;SDS011;21711;49.708;18.568;2024-02-15T10:07:49;4.00;;;1.92;;
31347;SDS011;21711;49.708;18.568;2024-02-15T10:10:17;2.55;;;1.52;;
31347;SDS011;21711;49.708;18.568;2024-02-15T10:12:52;3.22;;;1.90;;
31347;SDS011;21711;49.708;18.568;2024-02-15T10:15:28;2.10;;;1.50;;
31347;SDS011;21711;49.708;18.568;2024-02-15T10:18:02;2.47;;;1.65;;
31347;SDS011;21711;49.708;18.568;2024-02-15T10:20:34;3.42;;;1.55;;
31347;SDS011;21711;49.708;18.568;2024-02-15T10:25:36;2.88;;;1.73;;
31347;SDS011;21711;49.708;18.568;2024-02-15T10:28:06;2.58;;;1.70;;
31347;SDS011;21711;49.708;18.568;2024-02-15T10:30:36;3.10;;;1.60;;
31347;SDS011;21711;49.708;18.568;2024-02-15T10:33:06;2.17;;;1.35;;
31347;SDS011;21711;49.708;18.568;2024-02-15T10:35:36;2.50;;;1.23;;
31347;SDS011;21711;49.708;18.568;2024-02-15T10:38:10;1.73;;;1.40;;
31347;SDS011;21711;49.708;18.568;2024-02-15T10:40:44;5.07;;;1.38;;
31347;SDS011;21711;49.708;18.568;2024-02-15T10:43:13;4.05;;;1.38;;
31347;SDS011;21711;49.708;18.568;2024-02-15T10:48:11;1.38;;;1.10;;
31347;SDS011;21711;49.708;18.568;2024-02-15T10:50:40;2.67;;;1.10;;
31347;SDS011;21711;49.708;18.568;2024-02-15T10:55:56;1.60;;;1.13;;
31347;SDS011;21711;49.708;18.568;2024-02-15T11:01:42;3.17;;;1.35;;
31347;SDS011;21711;49.708;18.568;2024-02-15T11:04:14;2.50;;;1.38;;
31347;SDS011;21711;49.708;18.568;2024-02-15T11:06:48;2.15;;;1.50;;
31347;SDS011;21711;49.708;18.568;2024-02-15T11:09:20;3.25;;;2.03;;
31347;SDS011;21711;49.708;18.568;2024-02-15T11:11:48;3.03;;;1.73;;
31347;SDS011;21711;49.708;18.568;2024-02-15T11:16:59;5.18;;;1.70;;
31347;SDS011;21711;49.708;18.568;2024-02-15T11:22:11;5.25;;;2.47;;
31347;SDS011;21711;49.708;18.568;2024-02-15T11:24:45;3.80;;;2.30;;
31347;SDS011;21711;49.708;18.568;2024-02-15T11:27:25;6.22;;;2.63;;
31347;SDS011;21711;49.708;18.568;2024-02-15T11:29:59;6.00;;;2.10;;
31347;SDS011;21711;49.708;18.568;2024-02-15T11:32:44;2.83;;;2.00;;
31347;SDS011;21711;49.708;18.568;2024-02-15T11:35:30;6.57;;;2.30;;
31347;SDS011;21711;49.708;18.568;2024-02-15T11:37:58;2.70;;;1.60;;
31347;SDS011;21711;49.708;18.568;2024-02-15T11:46:24;2.25;;;1.42;;
31347;SDS011;21711;49.708;18.568;2024-02-15T11:48:53;1.88;;;1.08;;
31347;SDS011;21711;49.708;18.568;2024-02-15T11:51:26;2.17;;;1.10;;
31347;SDS011;21711;49.708;18.568;2024-02-15T11:54:10;9.50;;;1.75;;
31347;SDS011;21711;49.708;18.568;2024-02-15T11:56:52;3.55;;;1.13;;
31347;SDS011;21711;49.708;18.568;2024-02-15T11:59:38;4.85;;;1.27;;
31347;SDS011;21711;49.708;18.568;2024-02-15T12:02:20;2.55;;;1.63;;
31347;SDS011;21711;49.708;18.568;2024-02-15T12:05:06;3.05;;;1.33;;
31347;SDS011;21711;49.708;18.568;2024-02-15T12:07:53;1.77;;;1.38;;
31347;SDS011;21711;49.708;18.568;2024-02-15T12:10:39;3.13;;;1.60;;
31347;SDS011;21711;49.708;18.568;2024-02-15T12:13:25;1.95;;;1.25;;
31347;SDS011;21711;49.708;18.568;2024-02-15T12:16:15;3.58;;;1.17;;
31347;SDS011;21711;49.708;18.568;2024-02-15T12:19:01;2.70;;;1.20;;
31347;SDS011;21711;49.708;18.568;2024-02-15T12:21:30;1.30;;;1.00;;
31347;SDS011;21711;49.708;18.568;2024-02-15T12:23:57;2.15;;;1.17;;
31347;SDS011;21711;49.708;18.568;2024-02-15T12:26:25;1.98;;;1.13;;
31347;SDS011;21711;49.708;18.568;2024-02-15T12:28:54;3.30;;;1.45;;
31347;SDS011;21711;49.708;18.568;2024-02-15T12:31:22;3.55;;;1.20;;
31347;SDS011;21711;49.708;18.568;2024-02-15T12:34:04;5.32;;;1.45;;
31347;SDS011;21711;49.708;18.568;2024-02-15T12:36:34;2.35;;;1.02;;
31347;SDS011;21711;49.708;18.568;2024-02-15T12:39:06;3.40;;;1.30;;
31347;SDS011;21711;49.708;18.568;2024-02-15T12:41:47;4.63;;;1.35;;
31347;SDS011;21711;49.708;18.568;2024-02-15T12:44:18;3.63;;;1.42;;
31347;SDS011;21711;49.708;18.568;2024-02-15T12:46:47;1.73;;;1.10;;
31347;SDS011;21711;49.708;18.568;2024-02-15T12:51:50;1.65;;;0.82;;
31347;SDS011;21711;49.708;18.568;2024-02-15T12:54:40;2.92;;;1.38;;
31347;SDS011;21711;49.708;18.568;2024-02-15T12:57:08;2.60;;;1.05;;
31347;SDS011;21711;49.708;18.568;2024-02-15T12:59:41;2.85;;;1.52;;
31347;SDS011;21711;49.708;18.568;2024-02-15T13:02:09;2.08;;;1.08;;
31347;SDS011;21711;49.708;18.568;2024-02-15T13:04:36;2.33;;;1.35;;
31347;SDS011;21711;49.708;18.568;2024-02-15T13:07:05;2.13;;;1.38;;
31347;SDS011;21711;49.708;18.568;2024-02-15T13:09:34;3.22;;;1.73;;
31347;SDS011;21711;49.708;18.568;2024-02-15T13:12:01;2.40;;;1.40;;
31347;SDS011;21711;49.708;18.568;2024-02-15T13:14:30;3.42;;;1.35;;
31347;SDS011;21711;49.708;18.568;2024-02-15T13:16:58;2.67;;;1.60;;
31347;SDS011;21711;49.708;18.568;2024-02-15T13:19:25;3.03;;;1.50;;
31347;SDS011;21711;49.708;18.568;2024-02-15T13:21:53;2.63;;;1.58;;
31347;SDS011;21711;49.708;18.568;2024-02-15T13:24:24;3.60;;;1.50;;
31347;SDS011;21711;49.708;18.568;2024-02-15T13:26:53;2.08;;;1.23;;
31347;SDS011;21711;49.708;18.568;2024-02-15T13:29:24;2.20;;;1.48;;
31347;SDS011;21711;49.708;18.568;2024-02-15T13:31:51;2.28;;;1.40;;
31347;SDS011;21711;49.708;18.568;2024-02-15T13:34:19;2.47;;;1.75;;
31347;SDS011;21711;49.708;18.568;2024-02-15T13:36:47;3.33;;;1.60;;
31347;SDS011;21711;49.708;18.568;2024-02-15T13:39:16;3.05;;;1.38;;
31347;SDS011;21711;49.708;18.568;2024-02-15T13:41:48;2.35;;;1.50;;
31347;SDS011;21711;49.708;18.568;2024-02-15T13:44:15;2.97;;;1.52;;
31347;SDS011;21711;49.708;18.568;2024-02-15T13:46:43;3.28;;;1.50;;
31347;SDS011;21711;49.708;18.568;2024-02-15T13:49:10;1.90;;;1.42;;
31347;SDS011;21711;49.708;18.568;2024-02-15T13:51:54;3.65;;;1.60;;
31347;SDS011;21711;49.708;18.568;2024-02-15T13:54:22;4.20;;;1.30;;
31347;SDS011;21711;49.708;18.568;2024-02-15T13:56:49;2.28;;;1.23;;
31347;SDS011;21711;49.708;18.568;2024-02-15T13:59:16;4.68;;;1.63;;
31347;SDS011;21711;49.708;18.568;2024-02-15T14:01:45;1.73;;;0.93;;
31347;SDS011;21711;49.708;18.568;2024-02-15T14:04:12;1.20;;;0.90;;
31347;SDS011;21711;49.708;18.568;2024-02-15T14:06:40;2.85;;;1.20;;
31347;SDS011;21711;49.708;18.568;2024-02-15T14:11:38;2.08;;;1.05;;
31347;SDS011;21711;49.708;18.568;2024-02-15T14:14:06;2.70;;;1.23;;
31347;SDS011;21711;49.708;18.568;2024-02-15T14:16:34;2.83;;;0.95;;
31347;SDS011;21711;49.708;18.568;2024-02-15T14:19:01;2.22;;;1.15;;
31347;SDS011;21711;49.708;18.568;2024-02-15T14:21:30;2.90;;;1.10;;
31347;SDS011;21711;49.708;18.568;2024-02-15T14:24:00;1.77;;;1.00;;
31347;SDS011;21711;49.708;18.568;2024-02-15T14:26:30;3.17;;;1.50;;
31347;SDS011;21711;49.708;18.568;2024-02-15T14:28:58;2.03;;;0.90;;
31347;SDS011;21711;49.708;18.568;2024-02-15T14:31:29;1.95;;;0.90;;
31347;SDS011;21711;49.708;18.568;2024-02-15T14:34:15;2.42;;;1.05;;
31347;SDS011;21711;49.708;18.568;2024-02-15T14:36:44;2.05;;;1.15;;
31347;SDS011;21711;49.708;18.568;2024-02-15T14:39:13;2.13;;;0.90;;
31347;SDS011;21711;49.708;18.568;2024-02-15T14:41:41;5.85;;;1.45;;
31347;SDS011;21711;49.708;18.568;2024-02-15T14:44:15;3.22;;;1.00;;
31347;SDS011;21711;49.708;18.568;2024-02-15T14:46:43;2.13;;;1.00;;
31347;SDS011;21711;49.708;18.568;2024-02-15T14:49:11;1.73;;;1.00;;
31347;SDS011;21711;49.708;18.568;2024-02-15T14:51:38;1.83;;;0.90;;
31347;SDS011;21711;49.708;18.568;2024-02-15T14:54:06;1.60;;;0.80;;
31347;SDS011;21711;49.708;18.568;2024-02-15T14:56:33;1.85;;;1.10;;
31347;SDS011;21711;49.708;18.568;2024-02-15T14:59:04;2.95;;;1.08;;
31347;SDS011;21711;49.708;18.568;2024-02-15T15:01:31;1.83;;;0.75;;
31347;SDS011;21711;49.708;18.568;2024-02-15T15:03:58;5.80;;;1.33;;
31347;SDS011;21711;49.708;18.568;2024-02-15T15:06:30;4.70;;;2.03;;
31347;SDS011;21711;49.708;18.568;2024-02-15T15:09:15;6.25;;;2.33;;
31347;SDS011;21711;49.708;18.568;2024-02-15T15:12:01;7.10;;;3.40;;
31347;SDS011;21711;49.708;18.568;2024-02-15T15:14:48;4.25;;;1.75;;
31347;SDS011;21711;49.708;18.568;2024-02-15T15:17:15;6.07;;;3.10;;
31347;SDS011;21711;49.708;18.568;2024-02-15T15:19:43;8.38;;;3.92;;